Latest Coastal Weather Observations for Hindmarsh Island

IDS60701

Issued at 6:51 pm CST Monday 24 June 2019 (issued every 10 minutes, with the page automatically refreshed every 10 minutes)

About coastal observations | Map of coastal stations | Coastal observations for SA | Marine services | Other Formats
Station Details ID: 023894 Name: HINDMARSH ISLAND AWS Lat: -35.52 Lon: 138.82 Height: 11.0 m
Data from the previous 72 hours. | See also: Recent months at Hindmarsh Island
Date/Time
CST
Wind Sea
Height
m
Swell Vis
km
Cloud Weather Temp
°C
Press
hPa
Rain since
9am
mm
Dir  Spd
kts
Gust
kts
Height
m
Period
s
Dir
24/06:30pm NNE 12 15 - - - - - - - 9.0 1028.2 0.0
24/06:00pm NNE 12 17 - - - - - - - 9.2 1027.9 0.0
24/05:30pm NNE 11 15 - - - - - - - 9.1 1027.6 0.0
24/05:00pm NNE 12 16 - - - - - - - 9.5 1027.4 0.0
24/04:30pm NE 11 15 - - - - - - - 9.6 1027.1 0.0
24/04:00pm NNE 11 13 - - - - - - - 10.0 1027.3 0.0
24/03:30pm NE 11 13 - - - - - - - 10.6 1027.1 0.0
24/03:00pm NE 11 14 - - - - - - - 10.9 1027.3 0.0
24/02:30pm NE 9 11 - - - - - - - 10.9 1027.5 0.0
24/02:00pm NNE 9 14 - - - - - - - 11.2 1027.7 0.0
24/01:30pm N 6 8 - - - - - - - 10.9 1028.2 0.0
24/01:00pm NE 8 11 - - - - - - - 10.9 1028.6 0.0
24/12:30pm NW 2 5 - - - - - - - 9.6 1029.4 0.0
24/12:00pm N 5 7 - - - - - - - 9.4 1029.9 0.0
24/11:30am NNE 9 11 - - - - - - - 8.6 1029.8 0.0
24/11:00am NE 8 11 - - - - - - - 8.3 1030.2 0.0
24/10:30am ENE 9 10 - - - - - - - 8.1 1030.3 0.0
24/10:00am NNE 6 7 - - - - - - - 6.8 1030.9 0.0
24/09:30am N 6 8 - - - - - - - 5.9 1030.8 0.0
24/09:00am NNE 8 12 - - - - - - - 5.9 1030.4 0.2
24/08:30am NNE 6 8 - - - - - - - 4.5 1030.3 0.2
24/08:00am NNE 8 9 - - - - - - - 3.4 1030.2 0.2
24/07:30am NNE 8 10 - - - - - - - 2.8 1030.0 0.2
24/07:00am NNE 9 11 - - - - - - - 3.2 1029.9 0.2
24/06:30am NNE 7 8 - - - - - - - 2.5 1030.0 0.2
24/06:00am NNE 9 10 - - - - - - - 2.2 1029.9 0.2
24/05:30am N 6 8 - - - - - - - 2.2 1030.0 0.2
24/05:00am N 7 8 - - - - - - - 2.1 1030.1 0.2
24/04:30am N 8 10 - - - - - - - 2.8 1030.0 0.2
24/04:00am N 8 13 - - - - - - - 3.4 1030.0 0.2
24/03:30am NE 9 11 - - - - - - - 2.8 1029.9 0.2
24/03:00am N 9 11 - - - - - - - 3.0 1030.2 0.2
24/02:30am N 8 9 - - - - - - - 2.8 1030.2 0.2
24/02:00am N 7 8 - - - - - - - 2.9 1030.0 0.2
24/01:30am N 5 7 - - - - - - - 2.2 1029.8 0.0
24/01:00am N 6 7 - - - - - - - 3.2 1030.4 0.0
24/12:30am N 7 8 - - - - - - - 3.4 1030.5 0.0
24/12:00am NNW 6 7 - - - - - - - 3.9 1030.4 0.0
 
Date/Time
CST
Wind Sea
Height
m
Swell Vis
km
Cloud Weather Temp
°C
Press
hPa
Rain since
9am
mm
Dir  Spd
kts
Gust
kts
Height
m
Period
s
Dir
23/11:30pm NNW 6 7 - - - - - - - 3.9 1030.6 0.0
23/11:00pm N 6 7 - - - - - - - 4.2 1030.7 0.0
23/10:30pm NNW 5 5 - - - - - - - 4.2 1030.9 0.0
23/10:00pm NNW 5 5 - - - - - - - 4.6 1031.1 0.0
23/09:30pm N 4 5 - - - - - - - 5.2 1030.9 0.0
23/09:00pm N 4 5 - - - - - - - 6.0 1030.9 0.0
23/08:30pm N 3 5 - - - - - - - 6.7 1030.7 0.0
23/08:00pm CALM 0 0 - - - - - - - 6.8 1030.5 0.0
23/07:30pm CALM 0 0 - - - - - - - 6.6 1030.6 0.0
23/07:00pm N 4 5 - - - - - - - 7.6 1030.6 0.0
23/06:30pm N 5 6 - - - - - - - 7.2 1030.5 0.0
23/06:00pm N 7 8 - - - - - - - 8.1 1030.5 0.0
23/05:30pm NE 9 10 - - - - - - - 7.0 1030.2 0.0
23/05:00pm ENE 7 9 - - - - - - - 8.2 1030.1 0.0
23/04:30pm ENE 7 9 - - - - - - - 9.9 1029.9 0.0
23/04:00pm ENE 10 13 - - - - - - - 10.8 1029.9 0.0
23/03:30pm E 7 11 - - - - - - - 11.2 1029.9 0.0
23/03:00pm ENE 12 14 - - - - - - - 11.2 1029.7 0.0
23/02:30pm ENE 9 12 - - - - - - - 12.0 1029.8 0.0
23/02:00pm ENE 9 13 - - - - - - - 11.7 1030.0 0.0
23/01:30pm NNE 8 11 - - - - - - - 12.2 1030.2 0.0
23/01:00pm N 8 11 - - - - - - - 11.7 1030.3 0.0
23/12:30pm N 7 10 - - - - - - - 11.1 1030.7 0.0
23/12:00pm NE 7 9 - - - - - - - 11.1 1031.3 0.0
23/11:30am NE 7 9 - - - - - - - 9.6 1031.8 0.0
23/11:00am NNE 7 9 - - - - - - - 9.1 1032.3 0.0
23/10:30am NNE 7 9 - - - - - - - 8.5 1032.4 0.0
23/10:00am N 7 8 - - - - - - - 7.9 1032.5 0.0
23/09:30am N 7 8 - - - - - - - 6.4 1032.1 0.0
23/09:00am N 5 6 - - - - - - - 5.2 1031.9 0.2
23/08:30am NNE 6 7 - - - - - - - 3.8 1031.7 0.2
23/08:00am N 5 5 - - - - - - - 3.3 1031.8 0.2
23/07:30am N 6 6 - - - - - - - 3.3 1031.9 0.2
23/07:00am NNW 6 6 - - - - - - - 3.3 1031.9 0.2
23/06:30am NNW 2 5 - - - - - - - 3.2 1031.5 0.2
23/06:00am CALM 0 0 - - - - - - - 3.3 1031.2 0.2
23/05:30am NNW 1 5 - - - - - - - 3.4 1031.0 0.2
23/05:00am N 5 6 - - - - - - - 3.9 1030.8 0.2
23/04:30am NNW 6 7 - - - - - - - 4.1 1030.5 0.2
23/04:00am N 7 8 - - - - - - - 3.9 1030.4 0.2
23/03:30am NNE 3 4 - - - - - - - 3.9 1030.7 0.2
23/03:00am N 5 6 - - - - - - - 4.1 1030.9 0.2
23/02:30am NNW 5 6 - - - - - - - 5.0 1030.7 0.2
23/02:00am NNW 6 7 - - - - - - - 5.2 1030.7 0.2
23/01:30am NNW 5 6 - - - - - - - 5.1 1030.8 0.2
23/01:00am NNW 6 7 - - - - - - - 5.1 1030.9 0.2
23/12:30am N 7 8 - - - - - - - 5.0 1030.9 0.2
23/12:00am N 7 8 - - - - - - - 5.0 1030.9 0.2
 
Date/Time
CST
Wind Sea
Height
m
Swell Vis
km
Cloud Weather Temp
°C
Press
hPa
Rain since
9am
mm
Dir  Spd
kts
Gust
kts
Height
m
Period
s
Dir
22/11:30pm N 7 8 - - - - - - - 5.5 1030.8 0.2
22/11:00pm NE 9 11 - - - - - - - 5.4 1030.8 0.2
22/10:30pm ENE 9 10 - - - - - - - 5.6 1030.8 0.2
22/10:00pm NE 7 8 - - - - - - - 6.2 1030.7 0.2
22/09:30pm ENE 8 9 - - - - - - - 6.1 1030.9 0.2
22/09:00pm NE 8 9 - - - - - - - 6.1 1031.0 0.2
22/08:30pm ENE 8 8 - - - - - - - 5.5 1030.8 0.2
22/08:00pm ENE 8 9 - - - - - - - 6.5 1030.9 0.2
22/07:30pm E 8 8 - - - - - - - 6.7 1030.8 0.2
22/07:00pm E 7 7 - - - - - - - 7.3 1030.8 0.2
22/06:30pm E 7 7 - - - - - - - 7.6 1030.7 0.2
22/06:00pm E 6 7 - - - - - - - 8.1 1030.6 0.2
22/05:30pm E 6 7 - - - - - - - 8.6 1030.4 0.2
22/05:00pm ESE 6 7 - - - - - - - 9.4 1030.4 0.2
22/04:30pm ESE 8 9 - - - - - - - 10.6 1030.3 0.2
22/04:00pm E 8 11 - - - - - - - 11.6 1030.3 0.2
22/03:30pm ESE 9 11 - - - - - - - 12.2 1030.2 0.2
22/03:00pm E 7 10 - - - - - - - 13.0 1030.1 0.2
22/02:30pm ENE 7 10 - - - - - - - 13.1 1030.1 0.2
22/02:00pm NNE 6 9 - - - - - - - 13.2 1030.4 0.2
22/01:30pm NE 7 10 - - - - - - - 13.0 1030.7 0.0
22/01:00pm NE 8 9 - - - - - - - 12.8 1031.0 0.0
22/12:30pm NNE 9 12 - - - - - - - 12.2 1031.5 0.0
22/12:00pm NNE 9 12 - - - - - - - 12.2 1032.0 0.0
22/11:30am NNE 9 13 - - - - - - - 11.3 1032.4 0.0
22/11:00am NNE 8 11 - - - - - - - 10.2 1032.8 0.0
22/10:30am NNE 8 9 - - - - - - - 9.2 1033.0 0.0
22/10:00am NNE 10 12 - - - - - - - 8.2 1033.0 0.0
22/09:30am NNE 8 10 - - - - - - - 7.3 1033.0 0.0
22/09:00am NE 4 6 - - - - - - - 6.6 1032.9 0.0
22/08:30am NNE 1 4 - - - - - - - 4.7 1032.6 0.0
22/08:00am NNE 3 5 - - - - - - - 3.2 1032.4 0.0
22/07:30am NNE 3 4 - - - - - - - 3.7 1032.0 0.0
22/07:00am CALM 0 0 - - - - - - - 3.9 1031.8 0.0
22/06:30am NNE 3 4 - - - - - - - 3.5 1031.5 0.0
22/06:00am NNE 6 7 - - - - - - - 3.9 1031.3 0.0
22/05:30am N 6 7 - - - - - - - 4.1 1031.1 0.0
22/05:00am N 7 8 - - - - - - - 4.4 1031.0 0.0
22/04:30am N 6 7 - - - - - - - 4.3 1031.0 0.0
22/04:00am N 4 5 - - - - - - - 4.0 1031.2 0.0
22/03:30am N 5 6 - - - - - - - 5.0 1031.2 0.0
22/03:00am N 6 7 - - - - - - - 5.0 1031.3 0.0
22/02:30am N 5 7 - - - - - - - 5.0 1031.3 0.0
22/02:00am N 6 7 - - - - - - - 5.2 1031.2 0.0
22/01:30am N 3 4 - - - - - - - 4.8 1031.4 0.0
22/01:00am N 2 3 - - - - - - - 4.6 1031.5 0.0
22/12:30am N 3 5 - - - - - - - 5.8 1031.5 0.0
22/12:00am N 6 6 - - - - - - - 5.9 1031.7 0.0
 
Date/Time
CST
Wind Sea
Height
m
Swell Vis
km
Cloud Weather Temp
°C
Press
hPa
Rain since
9am
mm
Dir  Spd
kts
Gust
kts
Height
m
Period
s
Dir
21/11:30pm N 4 5 - - - - - - - 7.0 1031.9 0.0
21/11:00pm NNE 4 5 - - - - - - - 6.3 1032.0 0.0
21/10:30pm NNE 5 6 - - - - - - - 6.3 1031.9 0.0
21/10:00pm N 5 5 - - - - - - - 6.7 1032.0 0.0
21/09:30pm N 2 5 - - - - - - - 7.3 1031.8 0.0
21/09:00pm NNE 4 4 - - - - - - - 7.2 1031.7 0.0
21/08:30pm NNE 6 7 - - - - - - - 8.0 1031.6 0.0
21/08:00pm ENE 8 8 - - - - - - - 7.0 1031.5 0.0
21/07:30pm E 8 9 - - - - - - - 6.8 1031.3 0.0
21/07:00pm E 9 9 - - - - - - - 7.0 1031.3 0.0

Other formats

Comma delimited format used in spreadsheet applications
http://www.bom.gov.au/fwo/IDS60701/IDS60701.94677.axf

JavaScript Object Notation format (JSON) in row-major order
http://www.bom.gov.au/fwo/IDS60701/IDS60701.94677.json

Data quality

Most of these data are generated automatically and are frequently updated. Quality checks on data are not normally performed. It is possible for incorrect values to appear. Refer to information at About Latest Weather Observations and please check the disclaimer before using these data.